sensor_id;sensor_type;location;lat;lon;timestamp;P1;durP1;ratioP1;P2;durP2;ratioP2
53309;SDS011;39197;53.200;5.792;2022-09-24T00:01:48;58.50;;;47.88;;
53309;SDS011;39197;53.200;5.792;2022-09-24T00:04:16;53.33;;;44.55;;
53309;SDS011;39197;53.200;5.792;2022-09-24T00:06:43;66.18;;;51.95;;
53309;SDS011;39197;53.200;5.792;2022-09-24T00:09:11;53.28;;;43.03;;
53309;SDS011;39197;53.200;5.792;2022-09-24T00:11:38;59.05;;;48.42;;
53309;SDS011;39197;53.200;5.792;2022-09-24T00:14:04;54.63;;;43.92;;
53309;SDS011;39197;53.200;5.792;2022-09-24T00:16:31;49.00;;;42.70;;
53309;SDS011;39197;53.200;5.792;2022-09-24T00:18:58;56.10;;;46.95;;
53309;SDS011;39197;53.200;5.792;2022-09-24T00:21:26;54.20;;;43.70;;
53309;SDS011;39197;53.200;5.792;2022-09-24T00:23:55;51.83;;;44.13;;
53309;SDS011;39197;53.200;5.792;2022-09-24T00:26:22;51.92;;;42.78;;
53309;SDS011;39197;53.200;5.792;2022-09-24T00:29:08;70.97;;;59.00;;
53309;SDS011;39197;53.200;5.792;2022-09-24T00:31:35;54.42;;;46.75;;
53309;SDS011;39197;53.200;5.792;2022-09-24T00:34:00;49.60;;;43.05;;
53309;SDS011;39197;53.200;5.792;2022-09-24T00:36:27;51.58;;;44.55;;
53309;SDS011;39197;53.200;5.792;2022-09-24T00:38:53;48.20;;;42.83;;
53309;SDS011;39197;53.200;5.792;2022-09-24T00:41:23;59.75;;;49.08;;
53309;SDS011;39197;53.200;5.792;2022-09-24T00:43:55;55.28;;;44.70;;
53309;SDS011;39197;53.200;5.792;2022-09-24T00:46:26;73.15;;;55.70;;
53309;SDS011;39197;53.200;5.792;2022-09-24T00:49:10;67.25;;;52.42;;
53309;SDS011;39197;53.200;5.792;2022-09-24T00:51:38;83.88;;;61.55;;
53309;SDS011;39197;53.200;5.792;2022-09-24T00:54:06;112.32;;;87.03;;
53309;SDS011;39197;53.200;5.792;2022-09-24T00:56:36;162.90;;;121.80;;
53309;SDS011;39197;53.200;5.792;2022-09-24T00:59:05;75.32;;;60.67;;
53309;SDS011;39197;53.200;5.792;2022-09-24T01:01:34;77.60;;;61.63;;
53309;SDS011;39197;53.200;5.792;2022-09-24T01:04:00;103.05;;;76.63;;
53309;SDS011;39197;53.200;5.792;2022-09-24T01:06:28;94.00;;;69.65;;
53309;SDS011;39197;53.200;5.792;2022-09-24T01:08:54;68.05;;;53.10;;
53309;SDS011;39197;53.200;5.792;2022-09-24T01:16:49;64.18;;;48.88;;
53309;SDS011;39197;53.200;5.792;2022-09-24T01:19:40;60.10;;;47.80;;
53309;SDS011;39197;53.200;5.792;2022-09-24T01:30:23;56.33;;;42.75;;
53309;SDS011;39197;53.200;5.792;2022-09-24T01:32:50;56.80;;;41.78;;
53309;SDS011;39197;53.200;5.792;2022-09-24T01:35:26;28.52;;;21.45;;
53309;SDS011;39197;53.200;5.792;2022-09-24T01:38:02;22.33;;;14.80;;
53309;SDS011;39197;53.200;5.792;2022-09-24T01:40:31;27.15;;;15.55;;
53309;SDS011;39197;53.200;5.792;2022-09-24T01:42:58;33.38;;;16.85;;
53309;SDS011;39197;53.200;5.792;2022-09-24T01:45:27;13.20;;;6.38;;
53309;SDS011;39197;53.200;5.792;2022-09-24T01:47:56;16.42;;;5.05;;
53309;SDS011;39197;53.200;5.792;2022-09-24T01:50:28;15.67;;;5.70;;
53309;SDS011;39197;53.200;5.792;2022-09-24T01:53:04;12.82;;;4.28;;
53309;SDS011;39197;53.200;5.792;2022-09-24T01:58:26;9.60;;;2.92;;
53309;SDS011;39197;53.200;5.792;2022-09-24T02:00:58;16.92;;;8.15;;
53309;SDS011;39197;53.200;5.792;2022-09-24T02:03:32;13.73;;;4.35;;
53309;SDS011;39197;53.200;5.792;2022-09-24T02:06:17;12.93;;;6.78;;
53309;SDS011;39197;53.200;5.792;2022-09-24T02:08:49;13.80;;;2.83;;
53309;SDS011;39197;53.200;5.792;2022-09-24T02:11:16;20.25;;;7.78;;
53309;SDS011;39197;53.200;5.792;2022-09-24T02:13:47;20.00;;;5.68;;
53309;SDS011;39197;53.200;5.792;2022-09-24T02:16:21;11.60;;;4.03;;
53309;SDS011;39197;53.200;5.792;2022-09-24T02:18:53;16.48;;;4.47;;
53309;SDS011;39197;53.200;5.792;2022-09-24T02:21:23;15.15;;;3.75;;
53309;SDS011;39197;53.200;5.792;2022-09-24T02:23:53;19.58;;;4.80;;
53309;SDS011;39197;53.200;5.792;2022-09-24T02:26:24;20.23;;;5.00;;
53309;SDS011;39197;53.200;5.792;2022-09-24T02:28:50;23.65;;;5.93;;
53309;SDS011;39197;53.200;5.792;2022-09-24T02:31:17;12.73;;;4.38;;
53309;SDS011;39197;53.200;5.792;2022-09-24T02:33:49;20.43;;;10.10;;
53309;SDS011;39197;53.200;5.792;2022-09-24T02:36:34;15.52;;;4.32;;
53309;SDS011;39197;53.200;5.792;2022-09-24T02:39:00;16.25;;;3.53;;
53309;SDS011;39197;53.200;5.792;2022-09-24T02:41:27;15.10;;;3.55;;
53309;SDS011;39197;53.200;5.792;2022-09-24T02:43:54;15.20;;;3.70;;
53309;SDS011;39197;53.200;5.792;2022-09-24T02:46:20;16.33;;;4.32;;
53309;SDS011;39197;53.200;5.792;2022-09-24T02:48:45;15.32;;;3.92;;
53309;SDS011;39197;53.200;5.792;2022-09-24T02:51:11;16.15;;;5.03;;
53309;SDS011;39197;53.200;5.792;2022-09-24T02:53:37;17.10;;;5.25;;
53309;SDS011;39197;53.200;5.792;2022-09-24T02:56:02;13.68;;;3.60;;
53309;SDS011;39197;53.200;5.792;2022-09-24T02:58:30;19.02;;;4.50;;
53309;SDS011;39197;53.200;5.792;2022-09-24T03:00:55;21.13;;;7.10;;
53309;SDS011;39197;53.200;5.792;2022-09-24T03:03:22;19.17;;;4.75;;
53309;SDS011;39197;53.200;5.792;2022-09-24T03:05:48;16.02;;;4.22;;
53309;SDS011;39197;53.200;5.792;2022-09-24T03:08:17;16.13;;;4.28;;
53309;SDS011;39197;53.200;5.792;2022-09-24T03:10:44;10.77;;;2.20;;
53309;SDS011;39197;53.200;5.792;2022-09-24T03:13:10;18.02;;;2.58;;
53309;SDS011;39197;53.200;5.792;2022-09-24T03:15:36;23.65;;;5.05;;
53309;SDS011;39197;53.200;5.792;2022-09-24T03:18:02;12.13;;;2.30;;
53309;SDS011;39197;53.200;5.792;2022-09-24T03:20:27;15.55;;;2.08;;
53309;SDS011;39197;53.200;5.792;2022-09-24T03:22:53;15.70;;;1.90;;
53309;SDS011;39197;53.200;5.792;2022-09-24T03:25:19;13.95;;;2.22;;
53309;SDS011;39197;53.200;5.792;2022-09-24T03:27:45;13.88;;;2.08;;
53309;SDS011;39197;53.200;5.792;2022-09-24T03:30:11;22.83;;;3.15;;
53309;SDS011;39197;53.200;5.792;2022-09-24T03:33:16;10.70;;;1.83;;
53309;SDS011;39197;53.200;5.792;2022-09-24T03:35:42;27.00;;;4.70;;
53309;SDS011;39197;53.200;5.792;2022-09-24T03:38:07;11.88;;;1.60;;
53309;SDS011;39197;53.200;5.792;2022-09-24T03:40:33;13.68;;;1.90;;
53309;SDS011;39197;53.200;5.792;2022-09-24T03:42:58;19.65;;;2.50;;
53309;SDS011;39197;53.200;5.792;2022-09-24T03:45:24;16.85;;;1.58;;
53309;SDS011;39197;53.200;5.792;2022-09-24T03:47:49;15.80;;;2.75;;
53309;SDS011;39197;53.200;5.792;2022-09-24T03:50:15;19.52;;;2.50;;
53309;SDS011;39197;53.200;5.792;2022-09-24T03:52:41;15.73;;;1.80;;
53309;SDS011;39197;53.200;5.792;2022-09-24T03:55:06;14.43;;;2.03;;
53309;SDS011;39197;53.200;5.792;2022-09-24T03:57:32;16.90;;;1.83;;
53309;SDS011;39197;53.200;5.792;2022-09-24T03:59:58;18.27;;;2.25;;
53309;SDS011;39197;53.200;5.792;2022-09-24T04:02:24;15.07;;;1.90;;
53309;SDS011;39197;53.200;5.792;2022-09-24T04:04:49;15.20;;;1.83;;
53309;SDS011;39197;53.200;5.792;2022-09-24T04:07:16;11.98;;;1.58;;
53309;SDS011;39197;53.200;5.792;2022-09-24T04:09:42;20.02;;;2.25;;
53309;SDS011;39197;53.200;5.792;2022-09-24T04:12:07;13.88;;;1.77;;
53309;SDS011;39197;53.200;5.792;2022-09-24T04:14:33;21.83;;;2.00;;
53309;SDS011;39197;53.200;5.792;2022-09-24T04:16:58;18.60;;;1.45;;
53309;SDS011;39197;53.200;5.792;2022-09-24T04:19:24;11.95;;;1.10;;
53309;SDS011;39197;53.200;5.792;2022-09-24T04:21:51;14.75;;;2.05;;
53309;SDS011;39197;53.200;5.792;2022-09-24T04:24:17;14.63;;;1.67;;
53309;SDS011;39197;53.200;5.792;2022-09-24T04:26:42;16.45;;;1.42;;
53309;SDS011;39197;53.200;5.792;2022-09-24T04:29:08;14.55;;;2.42;;
53309;SDS011;39197;53.200;5.792;2022-09-24T04:31:34;10.07;;;1.23;;
53309;SDS011;39197;53.200;5.792;2022-09-24T04:33:59;13.85;;;1.92;;
53309;SDS011;39197;53.200;5.792;2022-09-24T04:36:25;16.48;;;2.25;;
53309;SDS011;39197;53.200;5.792;2022-09-24T04:38:51;13.45;;;2.53;;
53309;SDS011;39197;53.200;5.792;2022-09-24T04:41:17;20.50;;;1.63;;
53309;SDS011;39197;53.200;5.792;2022-09-24T04:43:42;11.30;;;1.50;;
53309;SDS011;39197;53.200;5.792;2022-09-24T04:46:10;15.30;;;1.67;;
53309;SDS011;39197;53.200;5.792;2022-09-24T04:48:37;7.88;;;1.30;;
53309;SDS011;39197;53.200;5.792;2022-09-24T04:51:07;10.88;;;1.50;;
53309;SDS011;39197;53.200;5.792;2022-09-24T04:53:33;11.93;;;1.52;;
53309;SDS011;39197;53.200;5.792;2022-09-24T04:56:01;9.98;;;1.10;;
53309;SDS011;39197;53.200;5.792;2022-09-24T04:58:30;11.90;;;1.58;;
53309;SDS011;39197;53.200;5.792;2022-09-24T05:00:55;14.45;;;2.42;;
53309;SDS011;39197;53.200;5.792;2022-09-24T05:03:21;13.60;;;1.58;;
53309;SDS011;39197;53.200;5.792;2022-09-24T05:05:47;14.93;;;2.05;;
53309;SDS011;39197;53.200;5.792;2022-09-24T05:08:14;14.50;;;1.48;;
53309;SDS011;39197;53.200;5.792;2022-09-24T05:10:41;13.57;;;1.83;;
53309;SDS011;39197;53.200;5.792;2022-09-24T05:13:07;15.98;;;1.55;;
53309;SDS011;39197;53.200;5.792;2022-09-24T05:15:32;15.57;;;2.05;;
53309;SDS011;39197;53.200;5.792;2022-09-24T05:17:58;11.88;;;1.20;;
53309;SDS011;39197;53.200;5.792;2022-09-24T05:20:24;12.88;;;1.40;;
53309;SDS011;39197;53.200;5.792;2022-09-24T05:22:49;14.27;;;1.45;;
53309;SDS011;39197;53.200;5.792;2022-09-24T05:25:16;14.00;;;2.28;;
53309;SDS011;39197;53.200;5.792;2022-09-24T05:27:43;13.50;;;1.30;;
53309;SDS011;39197;53.200;5.792;2022-09-24T05:30:13;9.65;;;1.10;;
53309;SDS011;39197;53.200;5.792;2022-09-24T05:32:40;12.48;;;1.33;;
53309;SDS011;39197;53.200;5.792;2022-09-24T05:35:05;14.48;;;1.58;;
53309;SDS011;39197;53.200;5.792;2022-09-24T05:37:32;15.88;;;1.88;;
53309;SDS011;39197;53.200;5.792;2022-09-24T05:39:58;16.08;;;1.33;;
53309;SDS011;39197;53.200;5.792;2022-09-24T05:42:44;12.48;;;1.23;;
53309;SDS011;39197;53.200;5.792;2022-09-24T05:45:11;12.48;;;1.10;;
53309;SDS011;39197;53.200;5.792;2022-09-24T05:47:37;10.63;;;1.17;;
53309;SDS011;39197;53.200;5.792;2022-09-24T05:50:03;10.05;;;1.10;;
53309;SDS011;39197;53.200;5.792;2022-09-24T05:52:29;9.27;;;0.80;;
53309;SDS011;39197;53.200;5.792;2022-09-24T05:54:55;14.88;;;1.27;;
53309;SDS011;39197;53.200;5.792;2022-09-24T05:57:21;10.52;;;1.38;;
53309;SDS011;39197;53.200;5.792;2022-09-24T05:59:46;12.68;;;1.27;;
53309;SDS011;39197;53.200;5.792;2022-09-24T06:02:12;10.75;;;1.20;;
53309;SDS011;39197;53.200;5.792;2022-09-24T06:04:37;14.43;;;2.00;;
53309;SDS011;39197;53.200;5.792;2022-09-24T06:07:03;7.95;;;0.90;;
53309;SDS011;39197;53.200;5.792;2022-09-24T06:09:28;9.73;;;1.15;;
53309;SDS011;39197;53.200;5.792;2022-09-24T06:11:54;11.75;;;1.20;;
53309;SDS011;39197;53.200;5.792;2022-09-24T06:14:20;12.07;;;1.20;;
53309;SDS011;39197;53.200;5.792;2022-09-24T06:16:45;20.55;;;3.13;;
53309;SDS011;39197;53.200;5.792;2022-09-24T06:19:11;15.25;;;1.20;;
53309;SDS011;39197;53.200;5.792;2022-09-24T06:21:36;13.70;;;2.00;;
53309;SDS011;39197;53.200;5.792;2022-09-24T06:24:02;12.77;;;1.42;;
53309;SDS011;39197;53.200;5.792;2022-09-24T06:26:28;19.08;;;1.42;;
53309;SDS011;39197;53.200;5.792;2022-09-24T06:28:53;11.88;;;1.42;;
53309;SDS011;39197;53.200;5.792;2022-09-24T06:31:19;8.65;;;1.17;;
53309;SDS011;39197;53.200;5.792;2022-09-24T06:33:44;11.90;;;1.63;;
53309;SDS011;39197;53.200;5.792;2022-09-24T06:36:10;16.08;;;1.90;;
53309;SDS011;39197;53.200;5.792;2022-09-24T06:38:36;12.20;;;2.33;;
53309;SDS011;39197;53.200;5.792;2022-09-24T06:41:04;16.30;;;1.80;;
53309;SDS011;39197;53.200;5.792;2022-09-24T06:43:31;9.95;;;1.00;;
53309;SDS011;39197;53.200;5.792;2022-09-24T06:45:57;12.30;;;1.90;;
53309;SDS011;39197;53.200;5.792;2022-09-24T06:48:26;11.25;;;1.52;;
53309;SDS011;39197;53.200;5.792;2022-09-24T06:50:52;11.43;;;1.92;;
53309;SDS011;39197;53.200;5.792;2022-09-24T06:53:18;8.98;;;1.15;;
53309;SDS011;39197;53.200;5.792;2022-09-24T06:55:44;13.02;;;1.58;;
53309;SDS011;39197;53.200;5.792;2022-09-24T06:58:11;14.27;;;1.60;;
53309;SDS011;39197;53.200;5.792;2022-09-24T07:00:39;13.98;;;1.58;;
53309;SDS011;39197;53.200;5.792;2022-09-24T07:03:08;10.95;;;2.17;;
53309;SDS011;39197;53.200;5.792;2022-09-24T07:05:39;9.88;;;1.48;;
53309;SDS011;39197;53.200;5.792;2022-09-24T07:08:05;11.73;;;0.98;;
53309;SDS011;39197;53.200;5.792;2022-09-24T07:10:30;12.20;;;0.90;;
53309;SDS011;39197;53.200;5.792;2022-09-24T07:12:56;8.77;;;0.95;;
53309;SDS011;39197;53.200;5.792;2022-09-24T07:15:21;11.45;;;1.80;;
53309;SDS011;39197;53.200;5.792;2022-09-24T07:17:47;15.13;;;1.40;;
53309;SDS011;39197;53.200;5.792;2022-09-24T07:20:13;9.13;;;1.25;;
53309;SDS011;39197;53.200;5.792;2022-09-24T07:22:39;8.27;;;1.20;;
53309;SDS011;39197;53.200;5.792;2022-09-24T07:25:11;11.95;;;1.73;;
53309;SDS011;39197;53.200;5.792;2022-09-24T07:27:37;5.82;;;0.77;;
53309;SDS011;39197;53.200;5.792;2022-09-24T07:30:06;7.80;;;1.45;;
53309;SDS011;39197;53.200;5.792;2022-09-24T07:32:33;7.68;;;0.98;;
53309;SDS011;39197;53.200;5.792;2022-09-24T07:34:59;8.35;;;1.05;;
53309;SDS011;39197;53.200;5.792;2022-09-24T07:37:24;8.73;;;1.67;;
53309;SDS011;39197;53.200;5.792;2022-09-24T07:39:50;9.63;;;0.98;;
53309;SDS011;39197;53.200;5.792;2022-09-24T07:42:16;8.00;;;1.08;;
53309;SDS011;39197;53.200;5.792;2022-09-24T07:44:42;7.07;;;1.23;;
53309;SDS011;39197;53.200;5.792;2022-09-24T07:47:07;11.57;;;1.15;;
53309;SDS011;39197;53.200;5.792;2022-09-24T07:49:34;9.73;;;1.95;;
53309;SDS011;39197;53.200;5.792;2022-09-24T07:52:00;8.32;;;1.10;;
53309;SDS011;39197;53.200;5.792;2022-09-24T07:54:26;6.53;;;0.80;;
53309;SDS011;39197;53.200;5.792;2022-09-24T07:56:54;10.32;;;1.05;;
53309;SDS011;39197;53.200;5.792;2022-09-24T07:59:19;7.53;;;1.15;;
53309;SDS011;39197;53.200;5.792;2022-09-24T08:01:45;10.00;;;0.98;;
53309;SDS011;39197;53.200;5.792;2022-09-24T08:04:10;7.55;;;0.82;;
53309;SDS011;39197;53.200;5.792;2022-09-24T08:06:36;10.70;;;1.48;;
53309;SDS011;39197;53.200;5.792;2022-09-24T08:09:02;9.95;;;0.93;;
53309;SDS011;39197;53.200;5.792;2022-09-24T08:11:28;9.23;;;1.45;;
53309;SDS011;39197;53.200;5.792;2022-09-24T08:13:55;10.35;;;1.15;;
53309;SDS011;39197;53.200;5.792;2022-09-24T08:16:21;11.52;;;1.67;;
53309;SDS011;39197;53.200;5.792;2022-09-24T08:18:48;11.00;;;1.60;;
53309;SDS011;39197;53.200;5.792;2022-09-24T08:21:14;11.07;;;0.82;;
53309;SDS011;39197;53.200;5.792;2022-09-24T08:23:40;7.70;;;1.40;;
53309;SDS011;39197;53.200;5.792;2022-09-24T08:26:07;7.60;;;1.00;;
53309;SDS011;39197;53.200;5.792;2022-09-24T08:28:34;7.50;;;1.25;;
53309;SDS011;39197;53.200;5.792;2022-09-24T08:31:01;4.95;;;0.60;;
53309;SDS011;39197;53.200;5.792;2022-09-24T08:33:28;7.68;;;1.05;;
53309;SDS011;39197;53.200;5.792;2022-09-24T08:35:57;9.18;;;1.67;;
53309;SDS011;39197;53.200;5.792;2022-09-24T08:38:24;5.30;;;0.73;;
53309;SDS011;39197;53.200;5.792;2022-09-24T08:46:22;9.73;;;1.55;;
53309;SDS011;39197;53.200;5.792;2022-09-24T08:49:38;8.80;;;2.08;;
53309;SDS011;39197;53.200;5.792;2022-09-24T08:52:16;5.07;;;0.93;;
53309;SDS011;39197;53.200;5.792;2022-09-24T08:55:21;6.45;;;0.90;;
53309;SDS011;39197;53.200;5.792;2022-09-24T09:00:37;13.70;;;1.75;;
53309;SDS011;39197;53.200;5.792;2022-09-24T09:09:09;4.75;;;0.88;;
53309;SDS011;39197;53.200;5.792;2022-09-24T09:11:45;7.53;;;0.77;;
53309;SDS011;39197;53.200;5.792;2022-09-24T09:14:20;11.80;;;1.17;;
53309;SDS011;39197;53.200;5.792;2022-09-24T09:16:57;8.15;;;1.80;;
53309;SDS011;39197;53.200;5.792;2022-09-24T09:19:39;10.20;;;1.40;;
53309;SDS011;39197;53.200;5.792;2022-09-24T09:22:20;9.40;;;1.65;;
53309;SDS011;39197;53.200;5.792;2022-09-24T09:24:52;9.43;;;1.40;;
53309;SDS011;39197;53.200;5.792;2022-09-24T09:27:19;12.02;;;1.50;;
53309;SDS011;39197;53.200;5.792;2022-09-24T09:30:11;8.77;;;1.35;;
53309;SDS011;39197;53.200;5.792;2022-09-24T09:43:18;7.05;;;1.63;;
53309;SDS011;39197;53.200;5.792;2022-09-24T09:48:51;6.95;;;0.80;;
53309;SDS011;39197;53.200;5.792;2022-09-24T09:51:24;7.65;;;1.23;;
53309;SDS011;39197;53.200;5.792;2022-09-24T09:53:54;8.73;;;1.10;;
53309;SDS011;39197;53.200;5.792;2022-09-24T09:56:26;7.53;;;1.00;;
53309;SDS011;39197;53.200;5.792;2022-09-24T09:59:00;9.60;;;2.17;;
53309;SDS011;39197;53.200;5.792;2022-09-24T10:01:31;7.82;;;1.73;;
53309;SDS011;39197;53.200;5.792;2022-09-24T10:03:58;6.43;;;0.90;;
53309;SDS011;39197;53.200;5.792;2022-09-24T10:06:31;6.68;;;1.23;;
53309;SDS011;39197;53.200;5.792;2022-09-24T10:09:07;8.20;;;1.45;;
53309;SDS011;39197;53.200;5.792;2022-09-24T10:11:37;7.32;;;1.02;;
53309;SDS011;39197;53.200;5.792;2022-09-24T10:14:03;8.52;;;1.33;;
53309;SDS011;39197;53.200;5.792;2022-09-24T10:16:34;8.07;;;1.52;;
53309;SDS011;39197;53.200;5.792;2022-09-24T10:19:02;7.38;;;1.17;;
53309;SDS011;39197;53.200;5.792;2022-09-24T10:21:35;6.32;;;1.75;;
53309;SDS011;39197;53.200;5.792;2022-09-24T10:24:05;7.07;;;1.10;;
53309;SDS011;39197;53.200;5.792;2022-09-24T10:26:41;7.38;;;1.17;;
53309;SDS011;39197;53.200;5.792;2022-09-24T10:32:13;6.70;;;0.88;;
53309;SDS011;39197;53.200;5.792;2022-09-24T10:34:58;4.45;;;1.02;;
53309;SDS011;39197;53.200;5.792;2022-09-24T10:37:25;5.25;;;1.00;;
53309;SDS011;39197;53.200;5.792;2022-09-24T10:39:55;5.13;;;1.08;;
53309;SDS011;39197;53.200;5.792;2022-09-24T10:42:27;7.47;;;1.30;;
53309;SDS011;39197;53.200;5.792;2022-09-24T10:44:54;8.50;;;1.48;;
53309;SDS011;39197;53.200;5.792;2022-09-24T10:47:26;5.78;;;1.60;;
53309;SDS011;39197;53.200;5.792;2022-09-24T10:50:22;6.97;;;1.33;;
53309;SDS011;39197;53.200;5.792;2022-09-24T10:53:06;7.45;;;0.75;;
53309;SDS011;39197;53.200;5.792;2022-09-24T10:55:40;6.35;;;1.58;;
53309;SDS011;39197;53.200;5.792;2022-09-24T11:01:32;6.97;;;1.38;;
53309;SDS011;39197;53.200;5.792;2022-09-24T11:07:24;7.22;;;1.40;;
53309;SDS011;39197;53.200;5.792;2022-09-24T11:10:09;6.57;;;1.02;;
53309;SDS011;39197;53.200;5.792;2022-09-24T11:12:56;6.30;;;1.13;;
53309;SDS011;39197;53.200;5.792;2022-09-24T11:18:53;5.68;;;1.13;;
53309;SDS011;39197;53.200;5.792;2022-09-24T11:21:30;10.80;;;1.92;;
53309;SDS011;39197;53.200;5.792;2022-09-24T11:32:24;10.05;;;2.67;;
53309;SDS011;39197;53.200;5.792;2022-09-24T11:35:13;7.00;;;1.45;;
53309;SDS011;39197;53.200;5.792;2022-09-24T11:40:43;8.48;;;1.92;;
53309;SDS011;39197;53.200;5.792;2022-09-24T11:48:46;7.45;;;1.40;;
53309;SDS011;39197;53.200;5.792;2022-09-24T11:55:25;7.65;;;1.40;;
53309;SDS011;39197;53.200;5.792;2022-09-24T11:57:40;8.30;;;1.70;;
53309;SDS011;39197;53.200;5.792;2022-09-24T12:00:16;7.00;;;2.25;;
53309;SDS011;39197;53.200;5.792;2022-09-24T12:02:58;6.72;;;1.60;;
53309;SDS011;39197;53.200;5.792;2022-09-24T12:06:06;6.47;;;1.20;;
53309;SDS011;39197;53.200;5.792;2022-09-24T12:11:25;6.22;;;1.52;;
53309;SDS011;39197;53.200;5.792;2022-09-24T12:14:00;8.27;;;1.90;;
53309;SDS011;39197;53.200;5.792;2022-09-24T12:16:35;7.78;;;1.30;;
53309;SDS011;39197;53.200;5.792;2022-09-24T12:19:16;5.18;;;1.08;;
53309;SDS011;39197;53.200;5.792;2022-09-24T12:21:49;5.45;;;1.80;;
53309;SDS011;39197;53.200;5.792;2022-09-24T12:24:33;6.75;;;1.00;;
53309;SDS011;39197;53.200;5.792;2022-09-24T12:27:00;6.15;;;1.98;;
53309;SDS011;39197;53.200;5.792;2022-09-24T12:37:59;5.88;;;1.15;;
53309;SDS011;39197;53.200;5.792;2022-09-24T12:43:25;3.70;;;1.40;;
53309;SDS011;39197;53.200;5.792;2022-09-24T12:45:54;6.03;;;1.95;;
53309;SDS011;39197;53.200;5.792;2022-09-24T12:48:23;2.92;;;1.00;;
53309;SDS011;39197;53.200;5.792;2022-09-24T12:50:54;6.90;;;1.60;;
53309;SDS011;39197;53.200;5.792;2022-09-24T12:53:23;7.10;;;1.50;;
53309;SDS011;39197;53.200;5.792;2022-09-24T12:55:57;6.30;;;1.80;;
53309;SDS011;39197;53.200;5.792;2022-09-24T13:01:10;6.45;;;1.60;;
53309;SDS011;39197;53.200;5.792;2022-09-24T13:03:39;4.53;;;0.75;;
53309;SDS011;39197;53.200;5.792;2022-09-24T13:06:20;4.85;;;1.40;;
53309;SDS011;39197;53.200;5.792;2022-09-24T13:08:56;6.97;;;1.35;;
53309;SDS011;39197;53.200;5.792;2022-09-24T13:11:26;8.48;;;1.60;;
53309;SDS011;39197;53.200;5.792;2022-09-24T13:13:59;6.75;;;1.88;;
53309;SDS011;39197;53.200;5.792;2022-09-24T13:16:35;6.60;;;2.00;;
53309;SDS011;39197;53.200;5.792;2022-09-24T13:19:02;4.88;;;1.17;;
53309;SDS011;39197;53.200;5.792;2022-09-24T13:21:31;4.80;;;1.08;;
53309;SDS011;39197;53.200;5.792;2022-09-24T13:23:57;5.03;;;1.42;;
53309;SDS011;39197;53.200;5.792;2022-09-24T13:26:34;6.38;;;1.42;;
53309;SDS011;39197;53.200;5.792;2022-09-24T13:29:00;8.10;;;1.30;;
53309;SDS011;39197;53.200;5.792;2022-09-24T13:31:32;3.35;;;0.88;;
53309;SDS011;39197;53.200;5.792;2022-09-24T13:34:19;6.97;;;1.48;;
53309;SDS011;39197;53.200;5.792;2022-09-24T13:36:56;6.00;;;1.48;;
53309;SDS011;39197;53.200;5.792;2022-09-24T13:42:21;8.07;;;1.58;;
53309;SDS011;39197;53.200;5.792;2022-09-24T13:45:10;6.50;;;2.00;;
53309;SDS011;39197;53.200;5.792;2022-09-24T13:50:15;7.13;;;2.00;;
53309;SDS011;39197;53.200;5.792;2022-09-24T13:55:23;4.63;;;1.20;;
53309;SDS011;39197;53.200;5.792;2022-09-24T13:57:58;7.60;;;1.45;;
53309;SDS011;39197;53.200;5.792;2022-09-24T14:00:27;6.45;;;1.98;;
53309;SDS011;39197;53.200;5.792;2022-09-24T14:02:59;6.82;;;2.97;;
53309;SDS011;39197;53.200;5.792;2022-09-24T14:05:27;7.68;;;1.95;;
53309;SDS011;39197;53.200;5.792;2022-09-24T14:07:55;4.53;;;1.38;;
53309;SDS011;39197;53.200;5.792;2022-09-24T14:10:25;7.10;;;1.88;;
53309;SDS011;39197;53.200;5.792;2022-09-24T14:13:00;7.05;;;1.98;;
53309;SDS011;39197;53.200;5.792;2022-09-24T14:18:23;7.03;;;2.33;;
53309;SDS011;39197;53.200;5.792;2022-09-24T14:21:01;8.43;;;3.03;;
53309;SDS011;39197;53.200;5.792;2022-09-24T14:23:35;6.00;;;1.10;;
53309;SDS011;39197;53.200;5.792;2022-09-24T14:26:06;6.07;;;2.33;;
53309;SDS011;39197;53.200;5.792;2022-09-24T14:28:36;8.52;;;2.63;;
53309;SDS011;39197;53.200;5.792;2022-09-24T14:31:04;7.07;;;2.42;;
53309;SDS011;39197;53.200;5.792;2022-09-24T14:33:33;9.23;;;1.83;;
53309;SDS011;39197;53.200;5.792;2022-09-24T14:36:03;5.90;;;1.92;;
53309;SDS011;39197;53.200;5.792;2022-09-24T14:38:29;5.15;;;1.23;;
53309;SDS011;39197;53.200;5.792;2022-09-24T14:44:00;7.07;;;1.35;;
53309;SDS011;39197;53.200;5.792;2022-09-24T14:46:43;5.15;;;1.25;;
53309;SDS011;39197;53.200;5.792;2022-09-24T14:49:20;6.70;;;1.35;;
53309;SDS011;39197;53.200;5.792;2022-09-24T14:59:25;4.97;;;1.50;;
53309;SDS011;39197;53.200;5.792;2022-09-24T15:04:55;10.63;;;2.95;;
53309;SDS011;39197;53.200;5.792;2022-09-24T15:07:24;4.75;;;1.33;;
53309;SDS011;39197;53.200;5.792;2022-09-24T15:09:55;4.70;;;1.00;;
53309;SDS011;39197;53.200;5.792;2022-09-24T15:12:27;6.93;;;0.90;;
53309;SDS011;39197;53.200;5.792;2022-09-24T15:15:02;4.80;;;1.77;;
53309;SDS011;39197;53.200;5.792;2022-09-24T15:17:45;5.10;;;1.48;;
53309;SDS011;39197;53.200;5.792;2022-09-24T15:20:11;7.00;;;1.05;;
53309;SDS011;39197;53.200;5.792;2022-09-24T15:22:37;9.45;;;1.52;;
53309;SDS011;39197;53.200;5.792;2022-09-24T15:25:04;9.05;;;3.20;;
53309;SDS011;39197;53.200;5.792;2022-09-24T15:27:31;4.85;;;2.10;;
53309;SDS011;39197;53.200;5.792;2022-09-24T15:29:59;6.43;;;1.48;;
53309;SDS011;39197;53.200;5.792;2022-09-24T15:32:26;7.55;;;1.33;;
53309;SDS011;39197;53.200;5.792;2022-09-24T15:34:55;6.70;;;1.90;;
53309;SDS011;39197;53.200;5.792;2022-09-24T15:37:24;4.55;;;1.55;;
53309;SDS011;39197;53.200;5.792;2022-09-24T15:39:57;8.68;;;2.63;;
53309;SDS011;39197;53.200;5.792;2022-09-24T15:42:29;12.15;;;2.55;;
53309;SDS011;39197;53.200;5.792;2022-09-24T15:44:54;9.50;;;1.70;;
53309;SDS011;39197;53.200;5.792;2022-09-24T15:47:22;9.27;;;2.38;;
53309;SDS011;39197;53.200;5.792;2022-09-24T15:49:48;6.43;;;2.72;;
53309;SDS011;39197;53.200;5.792;2022-09-24T15:52:19;9.75;;;1.73;;
53309;SDS011;39197;53.200;5.792;2022-09-24T15:54:56;9.10;;;1.50;;
53309;SDS011;39197;53.200;5.792;2022-09-24T15:57:24;5.85;;;2.30;;
53309;SDS011;39197;53.200;5.792;2022-09-24T15:59:51;6.20;;;1.63;;
53309;SDS011;39197;53.200;5.792;2022-09-24T16:02:22;8.00;;;2.33;;
53309;SDS011;39197;53.200;5.792;2022-09-24T16:04:52;6.40;;;2.00;;
53309;SDS011;39197;53.200;5.792;2022-09-24T16:07:18;4.90;;;1.33;;
53309;SDS011;39197;53.200;5.792;2022-09-24T16:09:44;6.95;;;3.47;;
53309;SDS011;39197;53.200;5.792;2022-09-24T16:12:16;5.50;;;1.67;;
53309;SDS011;39197;53.200;5.792;2022-09-24T16:14:43;6.68;;;1.70;;
53309;SDS011;39197;53.200;5.792;2022-09-24T16:17:09;9.00;;;2.40;;
53309;SDS011;39197;53.200;5.792;2022-09-24T16:19:35;6.35;;;2.60;;
53309;SDS011;39197;53.200;5.792;2022-09-24T16:22:01;6.97;;;1.63;;
53309;SDS011;39197;53.200;5.792;2022-09-24T16:24:29;6.50;;;2.25;;
53309;SDS011;39197;53.200;5.792;2022-09-24T16:26:56;5.88;;;2.15;;
53309;SDS011;39197;53.200;5.792;2022-09-24T16:29:23;7.85;;;2.70;;
53309;SDS011;39197;53.200;5.792;2022-09-24T16:31:48;5.85;;;2.40;;
53309;SDS011;39197;53.200;5.792;2022-09-24T16:34:14;8.45;;;1.80;;
53309;SDS011;39197;53.200;5.792;2022-09-24T16:36:40;8.63;;;3.97;;
53309;SDS011;39197;53.200;5.792;2022-09-24T16:39:05;9.73;;;3.85;;
53309;SDS011;39197;53.200;5.792;2022-09-24T16:41:31;6.30;;;1.60;;
53309;SDS011;39197;53.200;5.792;2022-09-24T16:44:01;7.30;;;2.88;;
53309;SDS011;39197;53.200;5.792;2022-09-24T16:46:28;9.95;;;3.88;;
53309;SDS011;39197;53.200;5.792;2022-09-24T16:48:54;6.63;;;2.70;;
53309;SDS011;39197;53.200;5.792;2022-09-24T16:51:19;12.60;;;2.78;;
53309;SDS011;39197;53.200;5.792;2022-09-24T16:53:45;9.77;;;3.95;;
53309;SDS011;39197;53.200;5.792;2022-09-24T16:56:14;10.57;;;5.88;;